createdAt,value
2023-01-18T00:00:05.585Z,51.211948
2023-01-18T00:01:05.489Z,51.212021
2023-01-18T00:02:05.472Z,51.212124
2023-01-18T00:03:05.468Z,51.211929
2023-01-18T00:04:05.456Z,51.211967
2023-01-18T00:05:05.480Z,51.212185
2023-01-18T00:06:05.452Z,51.212090
2023-01-18T00:07:05.428Z,51.212101
2023-01-18T00:08:05.417Z,51.212257
2023-01-18T00:09:05.449Z,51.212166
2023-01-18T00:10:05.404Z,51.212044
2023-01-18T00:11:05.413Z,51.212109
2023-01-18T00:12:05.411Z,51.212193
2023-01-18T00:13:05.397Z,51.212109
2023-01-18T00:14:05.378Z,51.212017
2023-01-18T00:15:05.403Z,51.211823
2023-01-18T00:16:05.388Z,51.212212
2023-01-18T00:17:05.378Z,51.212215
2023-01-18T00:18:05.372Z,51.212086
2023-01-18T00:19:05.359Z,51.212254
2023-01-18T00:20:05.350Z,51.212208
2023-01-18T00:21:05.353Z,51.212162
2023-01-18T00:22:05.355Z,51.211918
2023-01-18T00:23:05.328Z,51.212086
2023-01-18T00:24:05.337Z,51.212227
2023-01-18T00:25:05.321Z,51.212212
2023-01-18T00:26:05.327Z,51.212078
2023-01-18T00:27:05.354Z,51.212021
2023-01-18T00:28:05.314Z,51.212181
2023-01-18T00:29:05.296Z,51.212257
2023-01-18T00:30:05.328Z,51.212261
2023-01-18T00:31:05.290Z,51.212193
2023-01-18T00:32:05.288Z,51.212040
2023-01-18T00:33:05.318Z,51.212132
2023-01-18T00:34:05.277Z,51.212044
2023-01-18T00:35:05.268Z,51.211956
2023-01-18T00:36:05.282Z,51.211990
2023-01-18T00:37:05.270Z,51.211964
2023-01-18T00:38:05.261Z,51.212025
2023-01-18T00:39:05.279Z,51.212105
2023-01-18T00:40:05.240Z,51.212078
2023-01-18T00:41:05.260Z,51.212013
2023-01-18T00:42:05.262Z,51.212090
2023-01-18T00:43:05.253Z,51.212116
2023-01-18T00:44:05.231Z,51.212067
2023-01-18T00:45:05.247Z,51.212078
2023-01-18T00:46:05.293Z,51.212101
2023-01-18T00:47:05.205Z,51.212101
2023-01-18T00:48:05.208Z,51.212120
2023-01-18T00:49:05.209Z,51.212086
2023-01-18T00:50:05.197Z,51.212132
2023-01-18T00:51:05.193Z,51.212086
2023-01-18T00:52:05.186Z,51.212002
2023-01-18T00:53:05.182Z,51.211987
2023-01-18T00:54:05.217Z,51.212067
2023-01-18T00:55:05.170Z,51.212040
2023-01-18T00:56:05.161Z,51.212025
2023-01-18T00:57:05.165Z,51.212090
2023-01-18T00:58:05.144Z,51.212032
2023-01-18T00:59:05.173Z,51.212044
2023-01-18T01:00:05.138Z,51.212139
2023-01-18T01:01:05.217Z,51.212208
2023-01-18T01:02:05.299Z,51.212162
2023-01-18T01:03:05.120Z,51.212105
2023-01-18T01:04:05.122Z,51.212124
2023-01-18T01:05:05.121Z,51.212132
2023-01-18T01:06:05.108Z,51.212070
2023-01-18T01:07:05.112Z,51.212040
2023-01-18T01:08:05.109Z,51.212086
2023-01-18T01:09:05.100Z,51.212059
2023-01-18T01:10:05.117Z,51.212124
2023-01-18T01:11:05.084Z,51.212105
2023-01-18T01:12:05.084Z,51.212116
2023-01-18T01:13:05.094Z,51.212135
2023-01-18T01:14:05.060Z,51.212086
2023-01-18T01:15:05.090Z,51.212086
2023-01-18T01:16:05.093Z,51.212116
2023-01-18T01:17:05.047Z,51.211975
2023-01-18T01:18:05.068Z,51.211937
2023-01-18T01:19:05.038Z,51.212055
2023-01-18T01:20:05.047Z,51.212074
2023-01-18T01:21:05.059Z,51.212017
2023-01-18T01:22:05.053Z,51.211994
2023-01-18T01:23:05.017Z,51.211926
2023-01-18T01:24:05.017Z,51.211910
2023-01-18T01:25:05.020Z,51.212021
2023-01-18T01:26:05.070Z,51.211887
2023-01-18T01:27:05.006Z,51.211880
2023-01-18T01:28:04.995Z,51.211979
2023-01-18T01:29:05.006Z,51.212093
2023-01-18T01:30:04.988Z,51.212055
2023-01-18T01:31:05.021Z,51.211903
2023-01-18T01:32:05.027Z,51.211872
2023-01-18T01:33:04.960Z,51.211807
2023-01-18T01:34:04.958Z,51.211857
2023-01-18T01:35:04.982Z,51.211937
2023-01-18T01:36:04.963Z,51.211903
2023-01-18T01:37:04.945Z,51.212048
2023-01-18T01:38:04.998Z,51.212044
2023-01-18T01:39:04.945Z,51.212006
2023-01-18T01:40:04.930Z,51.211975
2023-01-18T01:41:05.970Z,51.212051
2023-01-18T01:42:04.940Z,51.212093
2023-01-18T01:43:04.914Z,51.211994
2023-01-18T01:44:04.980Z,51.211956
2023-01-18T01:45:04.919Z,51.211933
2023-01-18T01:46:04.956Z,51.211815
2023-01-18T01:47:04.946Z,51.211849
2023-01-18T01:48:04.895Z,51.211884
2023-01-18T01:49:04.893Z,51.211922
2023-01-18T01:50:04.924Z,51.211990
2023-01-18T01:51:04.870Z,51.212025
2023-01-18T01:52:04.861Z,51.211937
2023-01-18T01:53:04.891Z,51.211872
2023-01-18T01:54:04.915Z,51.211956
2023-01-18T01:55:04.883Z,51.211895
2023-01-18T01:56:04.847Z,51.211880
2023-01-18T01:57:04.853Z,51.211998
2023-01-18T01:58:04.830Z,51.211941
2023-01-18T01:59:04.835Z,51.211910
2023-01-18T02:00:04.848Z,51.211967
2023-01-18T02:01:04.955Z,51.211891
2023-01-18T02:02:04.924Z,51.212017
2023-01-18T02:03:04.835Z,51.212044
2023-01-18T02:04:04.805Z,51.212151
2023-01-18T02:05:04.801Z,51.212090
2023-01-18T02:06:04.849Z,51.212231
2023-01-18T02:07:04.803Z,51.212025
2023-01-18T02:08:04.779Z,51.211937
2023-01-18T02:09:04.794Z,51.211960
2023-01-18T02:10:04.761Z,51.212204
2023-01-18T02:11:04.766Z,51.212093
2023-01-18T02:12:04.787Z,51.212196
2023-01-18T02:13:04.753Z,51.212154
2023-01-18T02:14:04.756Z,51.212299
2023-01-18T02:15:04.777Z,51.212322
2023-01-18T02:16:04.734Z,51.212364
2023-01-18T02:17:04.755Z,51.212181
2023-01-18T02:18:04.731Z,51.212116
2023-01-18T02:19:04.735Z,51.212109
2023-01-18T02:20:04.722Z,51.212063
2023-01-18T02:21:04.730Z,51.211975
2023-01-18T02:22:04.694Z,51.212162
2023-01-18T02:23:04.710Z,51.212238
2023-01-18T02:24:04.710Z,51.212303
2023-01-18T02:25:04.674Z,51.212234
2023-01-18T02:26:04.673Z,51.212139
2023-01-18T02:27:04.700Z,51.212013
2023-01-18T02:28:04.665Z,51.212135
2023-01-18T02:29:04.674Z,51.212147
2023-01-18T02:30:04.663Z,51.212254
2023-01-18T02:31:04.706Z,51.212120
2023-01-18T02:32:04.638Z,51.212086
2023-01-18T02:33:04.653Z,51.212032
2023-01-18T02:34:04.636Z,51.212162
2023-01-18T02:35:04.627Z,51.212223
2023-01-18T02:36:04.659Z,51.212212
2023-01-18T02:37:04.622Z,51.212200
2023-01-18T02:38:04.623Z,51.212143
2023-01-18T02:39:04.624Z,51.212116
2023-01-18T02:40:04.592Z,51.212070
2023-01-18T02:41:04.618Z,51.212044
2023-01-18T02:42:04.608Z,51.212090
2023-01-18T02:43:04.592Z,51.212097
2023-01-18T02:44:04.578Z,51.212063
2023-01-18T02:45:04.586Z,51.212009
2023-01-18T02:46:04.607Z,51.211998
2023-01-18T02:47:04.594Z,51.212036
2023-01-18T02:48:04.570Z,51.212040
2023-01-18T02:49:04.547Z,51.212074
2023-01-18T02:50:04.536Z,51.212173
2023-01-18T02:51:04.549Z,51.212170
2023-01-18T02:52:04.542Z,51.212074
2023-01-18T02:53:04.536Z,51.212116
2023-01-18T02:54:04.564Z,51.212116
2023-01-18T02:55:04.504Z,51.212109
2023-01-18T02:56:04.504Z,51.212166
2023-01-18T02:57:04.552Z,51.212166
2023-01-18T02:58:04.501Z,51.212154
2023-01-18T02:59:04.499Z,51.212189
2023-01-18T03:00:04.504Z,51.212223
2023-01-18T03:01:04.555Z,51.212166
2023-01-18T03:02:04.519Z,51.212189
2023-01-18T03:03:04.472Z,51.212166
2023-01-18T03:04:04.480Z,51.211891
2023-01-18T03:05:04.461Z,51.211998
2023-01-18T03:06:04.477Z,51.211975
2023-01-18T03:07:04.436Z,51.212078
2023-01-18T03:08:04.435Z,51.212132
2023-01-18T03:09:04.452Z,51.212151
2023-01-18T03:10:04.433Z,51.212158
2023-01-18T03:11:04.428Z,51.212097
2023-01-18T03:12:04.452Z,51.212082
2023-01-18T03:13:04.407Z,51.212166
2023-01-18T03:14:04.405Z,51.212208
2023-01-18T03:15:04.494Z,51.212132
2023-01-18T03:16:04.406Z,51.212090
2023-01-18T03:17:04.391Z,51.212170
2023-01-18T03:18:04.407Z,51.212109
2023-01-18T03:19:04.373Z,51.212109
2023-01-18T03:20:04.368Z,51.212139
2023-01-18T03:21:04.411Z,51.212112
2023-01-18T03:22:04.359Z,51.212029
2023-01-18T03:23:04.354Z,51.212040
2023-01-18T03:24:05.171Z,51.212158
2023-01-18T03:25:06.234Z,51.212276
2023-01-18T03:26:04.342Z,51.212181
2023-01-18T03:27:05.171Z,51.212280
2023-01-18T03:28:04.344Z,51.212219
2023-01-18T03:29:04.322Z,51.212242
2023-01-18T03:30:04.345Z,51.212185
2023-01-18T03:31:04.331Z,51.212208
2023-01-18T03:32:04.326Z,51.212147
2023-01-18T03:33:04.314Z,51.212177
2023-01-18T03:34:04.292Z,51.212254
2023-01-18T03:35:04.297Z,51.212223
2023-01-18T03:36:04.299Z,51.212173
2023-01-18T03:37:04.288Z,51.212132
2023-01-18T03:38:04.286Z,51.212193
2023-01-18T03:39:04.274Z,51.212276
2023-01-18T03:40:04.272Z,51.212242
2023-01-18T03:41:04.253Z,51.212276
2023-01-18T03:42:04.267Z,51.212383
2023-01-18T03:43:04.264Z,51.212311
2023-01-18T03:44:04.247Z,51.212246
2023-01-18T03:45:04.256Z,51.212307
2023-01-18T03:46:04.245Z,51.212280
2023-01-18T03:47:04.223Z,51.212242
2023-01-18T03:48:04.238Z,51.212212
2023-01-18T03:49:04.221Z,51.212208
2023-01-18T03:50:04.195Z,51.212322
2023-01-18T03:51:05.209Z,51.212280
2023-01-18T03:52:04.194Z,51.212322
2023-01-18T03:53:04.210Z,51.212273
2023-01-18T03:54:04.194Z,51.212173
2023-01-18T03:55:04.201Z,51.212112
2023-01-18T03:56:04.170Z,51.212135
2023-01-18T03:57:04.192Z,51.212200
2023-01-18T03:58:04.170Z,51.212193
2023-01-18T03:59:04.161Z,51.212238
2023-01-18T04:00:04.278Z,51.212132
2023-01-18T04:01:04.322Z,51.212082
2023-01-18T04:02:04.161Z,51.211903
2023-01-18T04:03:04.188Z,51.211903
2023-01-18T04:04:04.139Z,51.211815
2023-01-18T04:05:04.174Z,51.211819
2023-01-18T04:06:04.135Z,51.211769
2023-01-18T04:07:04.151Z,51.211666
2023-01-18T04:08:04.110Z,51.211662
2023-01-18T04:09:04.109Z,51.211834
2023-01-18T04:10:04.088Z,51.211983
2023-01-18T04:11:04.114Z,51.212090
2023-01-18T04:12:04.092Z,51.212063
2023-01-18T04:13:04.081Z,51.212048
2023-01-18T04:14:04.083Z,51.212215
2023-01-18T04:15:04.101Z,51.212334
2023-01-18T04:16:04.108Z,51.212215
2023-01-18T04:17:04.066Z,51.212162
2023-01-18T04:18:04.073Z,51.212093
2023-01-18T04:19:04.079Z,51.212021
2023-01-18T04:20:04.053Z,51.212170
2023-01-18T04:21:04.032Z,51.212143
2023-01-18T04:22:04.067Z,51.212170
2023-01-18T04:23:04.022Z,51.212219
2023-01-18T04:24:05.015Z,51.212105
2023-01-18T04:25:04.034Z,51.212124
2023-01-18T04:26:04.677Z,51.212170
2023-01-18T04:27:04.004Z,51.212158
2023-01-18T04:28:04.031Z,51.212189
2023-01-18T04:29:04.009Z,51.212086
2023-01-18T04:30:03.994Z,51.212029
2023-01-18T04:31:04.010Z,51.211964
2023-01-18T04:32:03.962Z,51.212109
2023-01-18T04:33:03.996Z,51.212109
2023-01-18T04:34:03.945Z,51.212086
2023-01-18T04:35:03.976Z,51.212105
2023-01-18T04:36:03.968Z,51.212090
2023-01-18T04:37:03.929Z,51.212063
2023-01-18T04:38:03.945Z,51.212082
2023-01-18T04:39:03.935Z,51.211941
2023-01-18T04:40:03.957Z,51.212128
2023-01-18T04:41:04.930Z,51.212112
2023-01-18T04:42:03.976Z,51.212101
2023-01-18T04:43:03.922Z,51.212128
2023-01-18T04:44:03.925Z,51.212105
2023-01-18T04:45:03.937Z,51.212139
2023-01-18T04:46:03.925Z,51.212101
2023-01-18T04:47:03.898Z,51.212029
2023-01-18T04:48:03.880Z,51.212040
2023-01-18T04:49:03.879Z,51.212185
2023-01-18T04:50:03.881Z,51.212166
2023-01-18T04:51:03.894Z,51.212299
2023-01-18T04:52:03.863Z,51.212269
2023-01-18T04:53:03.842Z,51.212292
2023-01-18T04:54:03.868Z,51.212326
2023-01-18T04:55:03.843Z,51.212196
2023-01-18T04:56:03.828Z,51.212128
2023-01-18T04:57:03.863Z,51.212170
2023-01-18T04:58:03.875Z,51.212296
2023-01-18T04:59:03.815Z,51.212265
2023-01-18T05:00:03.862Z,51.212231
2023-01-18T05:01:03.969Z,51.212204
2023-01-18T05:02:03.921Z,51.212185
2023-01-18T05:03:03.796Z,51.212231
2023-01-18T05:04:03.835Z,51.212273
2023-01-18T05:05:03.792Z,51.212292
2023-01-18T05:06:04.794Z,51.212288
2023-01-18T05:07:03.812Z,51.212219
2023-01-18T05:08:03.825Z,51.212219
2023-01-18T05:09:03.774Z,51.212078
2023-01-18T05:10:03.782Z,51.212204
2023-01-18T05:11:03.790Z,51.212254
2023-01-18T05:12:03.750Z,51.212372
2023-01-18T05:13:03.767Z,51.212257
2023-01-18T05:14:03.742Z,51.212170
2023-01-18T05:15:03.756Z,51.212284
2023-01-18T05:16:06.022Z,51.212303
2023-01-18T05:17:04.770Z,51.212246
2023-01-18T05:18:03.737Z,51.212120
2023-01-18T05:19:03.777Z,51.212013
2023-01-18T05:20:03.719Z,51.212158
2023-01-18T05:21:03.697Z,51.212097
2023-01-18T05:22:03.739Z,51.212128
2023-01-18T05:23:03.689Z,51.212097
2023-01-18T05:24:03.690Z,51.212101
2023-01-18T05:25:03.787Z,51.212280
2023-01-18T05:26:04.678Z,51.212276
2023-01-18T05:27:03.697Z,51.212250
2023-01-18T05:28:03.663Z,51.212154
2023-01-18T05:29:03.649Z,51.212181
2023-01-18T05:30:06.488Z,51.212070
2023-01-18T05:31:03.637Z,51.212105
2023-01-18T05:32:03.638Z,51.212196
2023-01-18T05:33:03.626Z,51.212116
2023-01-18T05:34:03.626Z,51.212070
2023-01-18T05:35:03.748Z,51.212021
2023-01-18T05:36:03.631Z,51.211887
2023-01-18T05:37:03.635Z,51.211998
2023-01-18T05:38:04.164Z,51.212036
2023-01-18T05:39:03.630Z,51.212181
2023-01-18T05:40:03.598Z,51.212051
2023-01-18T05:41:03.629Z,51.211983
2023-01-18T05:42:03.568Z,51.211887
2023-01-18T05:43:03.590Z,51.211868
2023-01-18T05:44:03.578Z,51.211906
2023-01-18T05:45:03.551Z,51.211880
2023-01-18T05:46:03.587Z,51.211933
2023-01-18T05:47:03.600Z,51.212109
2023-01-18T05:48:03.550Z,51.212105
2023-01-18T05:49:03.559Z,51.212029
2023-01-18T05:50:03.521Z,51.212025
2023-01-18T05:51:03.544Z,51.211987
2023-01-18T05:52:04.172Z,51.212166
2023-01-18T05:53:03.569Z,51.212112
2023-01-18T05:54:03.532Z,51.212063
2023-01-18T05:55:03.515Z,51.212074
2023-01-18T05:56:03.509Z,51.212063
2023-01-18T05:57:03.556Z,51.212006
2023-01-18T05:58:03.497Z,51.211819
2023-01-18T05:59:03.499Z,51.212173
2023-01-18T06:00:03.547Z,51.212082
2023-01-18T06:01:03.510Z,51.212078
2023-01-18T06:02:03.518Z,51.212086
2023-01-18T06:03:03.519Z,51.212078
2023-01-18T06:04:03.533Z,51.212093
2023-01-18T06:05:03.488Z,51.212181
2023-01-18T06:06:03.461Z,51.212219
2023-01-18T06:07:03.534Z,51.212177
2023-01-18T06:08:03.482Z,51.212326
2023-01-18T06:09:03.532Z,51.212109
2023-01-18T06:10:03.425Z,51.212200
2023-01-18T06:11:03.469Z,51.212273
2023-01-18T06:12:03.414Z,51.212261
2023-01-18T06:13:03.449Z,51.212208
2023-01-18T06:14:03.428Z,51.212196
2023-01-18T06:15:03.408Z,51.212055
2023-01-18T06:16:03.502Z,51.212021
2023-01-18T06:17:03.373Z,51.212189
2023-01-18T06:18:03.379Z,51.212212
2023-01-18T06:19:03.370Z,51.212246
2023-01-18T06:20:03.423Z,51.212246
2023-01-18T06:21:03.378Z,51.212170
2023-01-18T06:22:03.376Z,51.212135
2023-01-18T06:23:03.359Z,51.212193
2023-01-18T06:24:03.398Z,51.212139
2023-01-18T06:25:03.340Z,51.212181
2023-01-18T06:26:03.329Z,51.212082
2023-01-18T06:27:03.330Z,51.212124
2023-01-18T06:28:03.348Z,51.212208
2023-01-18T06:29:03.371Z,51.212246
2023-01-18T06:30:03.341Z,51.212200
2023-01-18T06:31:03.347Z,51.212132
2023-01-18T06:32:03.314Z,51.212143
2023-01-18T06:33:03.322Z,51.212208
2023-01-18T06:34:03.297Z,51.212238
2023-01-18T06:35:03.313Z,51.212151
2023-01-18T06:36:03.302Z,51.212105
2023-01-18T06:37:03.306Z,51.212101
2023-01-18T06:38:03.265Z,51.212105
2023-01-18T06:39:03.305Z,51.212070
2023-01-18T06:40:06.080Z,51.212097
2023-01-18T06:41:03.262Z,51.212109
2023-01-18T06:42:03.298Z,51.211933
2023-01-18T06:43:03.295Z,51.211922
2023-01-18T06:44:03.302Z,51.211929
2023-01-18T06:45:03.360Z,51.211948
2023-01-18T06:46:03.292Z,51.212036
2023-01-18T06:47:03.292Z,51.211994
2023-01-18T06:48:03.306Z,51.211884
2023-01-18T06:49:03.220Z,51.212002
2023-01-18T06:50:03.277Z,51.212109
2023-01-18T06:51:03.231Z,51.212017
2023-01-18T06:52:03.262Z,51.212055
2023-01-18T06:53:03.208Z,51.212074
2023-01-18T06:54:03.202Z,51.211994
2023-01-18T06:55:03.291Z,51.212059
2023-01-18T06:56:03.229Z,51.212051
2023-01-18T06:57:03.189Z,51.212063
2023-01-18T06:58:03.209Z,51.212082
2023-01-18T06:59:03.199Z,51.212048
2023-01-18T07:00:03.194Z,51.211994
2023-01-18T07:01:03.300Z,51.212055
2023-01-18T07:02:03.339Z,51.212135
2023-01-18T07:03:03.172Z,51.212097
2023-01-18T07:04:03.228Z,51.212093
2023-01-18T07:05:03.170Z,51.212093
2023-01-18T07:06:03.154Z,51.212234
2023-01-18T07:07:03.143Z,51.212345
2023-01-18T07:08:03.120Z,51.212181
2023-01-18T07:09:03.128Z,51.212116
2023-01-18T07:10:03.120Z,51.212097
2023-01-18T07:11:03.150Z,51.212208
2023-01-18T07:12:03.123Z,51.212181
2023-01-18T07:13:03.132Z,51.212029
2023-01-18T07:14:03.099Z,51.212109
2023-01-18T07:15:12.741Z,51.212063
2023-01-18T07:16:05.092Z,51.212158
2023-01-18T07:17:03.289Z,51.212048
2023-01-18T07:18:03.208Z,51.212097
2023-01-18T07:19:03.095Z,51.212101
2023-01-18T07:20:03.068Z,51.212116
2023-01-18T07:21:03.056Z,51.212162
2023-01-18T07:22:03.159Z,51.212143
2023-01-18T07:23:03.059Z,51.212105
2023-01-18T07:24:03.068Z,51.212116
2023-01-18T07:25:03.040Z,51.212116
2023-01-18T07:26:03.017Z,51.212132
2023-01-18T07:27:03.069Z,51.212170
2023-01-18T07:28:02.996Z,51.212128
2023-01-18T07:29:03.013Z,51.212101
2023-01-18T07:30:03.028Z,51.212009
2023-01-18T07:31:03.035Z,51.211998
2023-01-18T07:32:03.076Z,51.212154
2023-01-18T07:33:03.047Z,51.212128
2023-01-18T07:34:03.044Z,51.212200
2023-01-18T07:35:03.060Z,51.212177
2023-01-18T07:36:03.008Z,51.212132
2023-01-18T07:37:02.971Z,51.212166
2023-01-18T07:38:02.967Z,51.212204
2023-01-18T07:39:03.088Z,51.212227
2023-01-18T07:40:02.971Z,51.212173
2023-01-18T07:41:02.959Z,51.212162
2023-01-18T07:42:02.943Z,51.212223
2023-01-18T07:43:02.899Z,51.212109
2023-01-18T07:44:03.693Z,51.212078
2023-01-18T07:45:02.899Z,51.212109
2023-01-18T07:46:02.949Z,51.212051
2023-01-18T07:47:02.902Z,51.212025
2023-01-18T07:48:02.876Z,51.212170
2023-01-18T07:49:02.880Z,51.212120
2023-01-18T07:50:02.891Z,51.212173
2023-01-18T07:51:02.882Z,51.212238
2023-01-18T07:52:02.867Z,51.212238
2023-01-18T07:53:02.889Z,51.212257
2023-01-18T07:54:02.840Z,51.212109
2023-01-18T07:55:04.212Z,51.212132
2023-01-18T07:56:02.843Z,51.212002
2023-01-18T07:57:02.834Z,51.212143
2023-01-18T07:58:02.820Z,51.212166
2023-01-18T07:59:02.876Z,51.212151
2023-01-18T08:00:02.804Z,51.212093
2023-01-18T08:01:02.913Z,51.211941
2023-01-18T08:02:02.882Z,51.211956
2023-01-18T08:03:03.177Z,51.212063
2023-01-18T08:04:02.817Z,51.212162
2023-01-18T08:05:02.785Z,51.212006
2023-01-18T08:06:02.827Z,51.211937
2023-01-18T08:07:02.806Z,51.212143
2023-01-18T08:08:02.765Z,51.212170
2023-01-18T08:09:02.773Z,51.212101
2023-01-18T08:10:02.777Z,51.212193
2023-01-18T08:11:02.765Z,51.212208
2023-01-18T08:12:02.744Z,51.212154
2023-01-18T08:13:03.774Z,51.212048
2023-01-18T08:14:02.741Z,51.212036
2023-01-18T08:15:02.741Z,51.211960
2023-01-18T08:16:02.812Z,51.212006
2023-01-18T08:17:02.723Z,51.212055
2023-01-18T08:18:02.712Z,51.212048
2023-01-18T08:19:02.746Z,51.211937
2023-01-18T08:20:02.703Z,51.211956
2023-01-18T08:21:02.700Z,51.212017
2023-01-18T08:22:02.761Z,51.212013
2023-01-18T08:23:02.699Z,51.212009
2023-01-18T08:24:02.697Z,51.212070
2023-01-18T08:25:02.673Z,51.212044
2023-01-18T08:26:02.680Z,51.212296
2023-01-18T08:27:02.667Z,51.212128
2023-01-18T08:28:02.654Z,51.212139
2023-01-18T08:29:02.667Z,51.212097
2023-01-18T08:30:02.627Z,51.212105
2023-01-18T08:31:02.663Z,51.212097
2023-01-18T08:32:02.674Z,51.212234
2023-01-18T08:33:02.622Z,51.211906
2023-01-18T08:34:02.661Z,51.211952
2023-01-18T08:35:02.614Z,51.211979
2023-01-18T08:36:02.609Z,51.212029
2023-01-18T08:37:02.598Z,51.212109
2023-01-18T08:38:02.660Z,51.212158
2023-01-18T08:39:02.618Z,51.212124
2023-01-18T08:40:02.604Z,51.212090
2023-01-18T08:41:02.580Z,51.212040
2023-01-18T08:42:02.623Z,51.211975
2023-01-18T08:43:02.567Z,51.212025
2023-01-18T08:44:02.548Z,51.212032
2023-01-18T08:45:02.546Z,51.211952
2023-01-18T08:46:02.613Z,51.212029
2023-01-18T08:47:02.588Z,51.212040
2023-01-18T08:48:02.553Z,51.212040
2023-01-18T08:49:02.532Z,51.212112
2023-01-18T08:50:02.538Z,51.212051
2023-01-18T08:51:02.528Z,51.212009
2023-01-18T08:52:02.512Z,51.211987
2023-01-18T08:53:02.500Z,51.211979
2023-01-18T08:54:02.523Z,51.211952
2023-01-18T08:55:02.534Z,51.211914
2023-01-18T08:56:02.487Z,51.211975
2023-01-18T08:57:02.488Z,51.211975
2023-01-18T08:58:02.559Z,51.211971
2023-01-18T08:59:02.670Z,51.212044
2023-01-18T09:00:02.459Z,51.212132
2023-01-18T09:01:02.483Z,51.212124
2023-01-18T09:02:02.545Z,51.212074
2023-01-18T09:03:03.009Z,51.212051
2023-01-18T09:04:02.544Z,51.211929
2023-01-18T09:05:02.435Z,51.211895
2023-01-18T09:06:02.430Z,51.211979
2023-01-18T09:07:02.539Z,51.211735
2023-01-18T09:08:02.472Z,51.211575
2023-01-18T09:09:02.439Z,51.211769
2023-01-18T09:10:02.408Z,51.211811
2023-01-18T09:11:02.449Z,51.212002
2023-01-18T09:12:02.388Z,51.211853
2023-01-18T09:13:02.407Z,51.212029
2023-01-18T09:14:02.513Z,51.212090
2023-01-18T09:15:02.381Z,51.212208
2023-01-18T09:16:02.393Z,51.212002
2023-01-18T09:17:02.379Z,51.212135
2023-01-18T09:18:02.361Z,51.212173
2023-01-18T09:19:02.347Z,51.212261
2023-01-18T09:20:02.392Z,51.212288
2023-01-18T09:21:02.361Z,51.212238
2023-01-18T09:22:02.331Z,51.212067
2023-01-18T09:23:02.359Z,51.212173
2023-01-18T09:24:02.333Z,51.212196
2023-01-18T09:25:02.334Z,51.212154
2023-01-18T09:26:02.318Z,51.212109
2023-01-18T09:27:02.311Z,51.212124
2023-01-18T09:28:03.146Z,51.212166
2023-01-18T09:29:02.324Z,51.212093
2023-01-18T09:30:02.362Z,51.212132
2023-01-18T09:31:02.342Z,51.212105
2023-01-18T09:32:02.307Z,51.212143
2023-01-18T09:33:02.532Z,51.212093
2023-01-18T09:34:18.553Z,51.212006
2023-01-18T09:35:04.266Z,51.212112
2023-01-18T09:36:02.254Z,51.212109
2023-01-18T09:37:02.254Z,51.212105
2023-01-18T09:38:02.269Z,51.212055
2023-01-18T09:39:02.243Z,51.211838
2023-01-18T09:40:02.227Z,51.212074
2023-01-18T09:41:02.251Z,51.212120
2023-01-18T09:42:02.236Z,51.212170
2023-01-18T09:43:02.224Z,51.212151
2023-01-18T09:44:02.219Z,51.212132
2023-01-18T09:45:02.235Z,51.212166
2023-01-18T09:46:02.186Z,51.212166
2023-01-18T09:47:02.216Z,51.212090
2023-01-18T09:48:02.185Z,51.212059
2023-01-18T09:49:02.200Z,51.212078
2023-01-18T09:50:02.188Z,51.212120
2023-01-18T09:51:02.162Z,51.212101
2023-01-18T09:52:02.231Z,51.212128
2023-01-18T09:53:02.309Z,51.212212
2023-01-18T09:54:02.199Z,51.212151
2023-01-18T09:55:02.140Z,51.211952
2023-01-18T09:56:02.137Z,51.212166
2023-01-18T09:57:02.158Z,51.212135
2023-01-18T09:58:02.128Z,51.212139
2023-01-18T09:59:02.155Z,51.212170
2023-01-18T10:00:02.135Z,51.212242
2023-01-18T10:01:02.174Z,51.212261
2023-01-18T10:02:02.197Z,51.212242
2023-01-18T10:03:02.486Z,51.212147
2023-01-18T10:04:02.087Z,51.212177
2023-01-18T10:05:02.131Z,51.212208
2023-01-18T10:06:03.091Z,51.212219
2023-01-18T10:07:02.071Z,51.212212
2023-01-18T10:08:02.103Z,51.212147
2023-01-18T10:09:02.091Z,51.212055
2023-01-18T10:10:02.082Z,51.212105
2023-01-18T10:11:02.104Z,51.212135
2023-01-18T10:12:02.089Z,51.212132
2023-01-18T10:13:02.066Z,51.212261
2023-01-18T10:14:02.048Z,51.212315
2023-01-18T10:15:02.071Z,51.212154
2023-01-18T10:16:02.113Z,51.212040
2023-01-18T10:17:02.028Z,51.212082
2023-01-18T10:18:02.030Z,51.212173
2023-01-18T10:19:02.058Z,51.212101
2023-01-18T10:20:02.030Z,51.212147
2023-01-18T10:21:02.069Z,51.212006
2023-01-18T10:22:02.016Z,51.211868
2023-01-18T10:23:02.007Z,51.212143
2023-01-18T10:24:01.993Z,51.212101
2023-01-18T10:25:02.020Z,51.212101
2023-01-18T10:26:01.978Z,51.212223
2023-01-18T10:27:01.998Z,51.212364
2023-01-18T10:28:01.950Z,51.212288
2023-01-18T10:29:01.958Z,51.212170
2023-01-18T10:30:02.048Z,51.212166
2023-01-18T10:31:02.691Z,51.212017
2023-01-18T10:32:02.003Z,51.211964
2023-01-18T10:33:02.380Z,51.212151
2023-01-18T10:34:01.946Z,51.212246
2023-01-18T10:35:01.899Z,51.212135
2023-01-18T10:36:01.905Z,51.212147
2023-01-18T10:37:01.936Z,51.212227
2023-01-18T10:38:02.133Z,51.212193
2023-01-18T10:39:01.932Z,51.212303
2023-01-18T10:40:01.901Z,51.212116
2023-01-18T10:41:01.891Z,51.211941
2023-01-18T10:42:01.887Z,51.212021
2023-01-18T10:43:02.285Z,51.212345
2023-01-18T10:44:01.892Z,51.212013
2023-01-18T10:45:01.877Z,51.211987
2023-01-18T10:46:01.891Z,51.212063
2023-01-18T10:47:01.909Z,51.212166
2023-01-18T10:48:01.853Z,51.212086
2023-01-18T10:49:01.850Z,51.212132
2023-01-18T10:50:01.817Z,51.211952
2023-01-18T10:51:01.838Z,51.211796
2023-01-18T10:52:01.813Z,51.212070
2023-01-18T10:53:02.863Z,51.212383
2023-01-18T10:54:01.776Z,51.212055
2023-01-18T10:55:01.852Z,51.211983
2023-01-18T10:56:01.815Z,51.212154
2023-01-18T10:57:01.797Z,51.212170
2023-01-18T10:58:01.934Z,51.211945
2023-01-18T10:59:01.862Z,51.211987
2023-01-18T11:00:01.791Z,51.211876
2023-01-18T11:01:01.838Z,51.211823
2023-01-18T11:02:01.999Z,51.211880
2023-01-18T11:03:02.185Z,51.211887
2023-01-18T11:04:01.758Z,51.211838
2023-01-18T11:05:01.722Z,51.211906
2023-01-18T11:06:01.754Z,51.212067
2023-01-18T11:07:01.728Z,51.212097
2023-01-18T11:08:02.715Z,51.212021
2023-01-18T11:09:02.720Z,51.211975
2023-01-18T11:10:01.679Z,51.212006
2023-01-18T11:11:01.757Z,51.211769
2023-01-18T11:12:01.733Z,51.211979
2023-01-18T11:13:01.915Z,51.212044
2023-01-18T11:14:01.671Z,51.212082
2023-01-18T11:15:01.665Z,51.212120
2023-01-18T11:16:01.768Z,51.211887
2023-01-18T11:17:02.749Z,51.211983
2023-01-18T11:18:01.662Z,51.211899
2023-01-18T11:19:01.691Z,51.212082
2023-01-18T11:20:01.648Z,51.212070
2023-01-18T11:21:01.636Z,51.212051
2023-01-18T11:22:01.702Z,51.212048
2023-01-18T11:23:02.153Z,51.212017
2023-01-18T11:24:01.644Z,51.211998